Latest  Newer  Older  Last 2 hours slideshow  Last 24 hours slideshow  Refresh every 5 minutes 
Current image  Latest image  Rain/snow radar  Cloud coverage sat images 

All time is UTC (add 2 hours to UTC in wintertime, 3 hours to UTC in DST for Latvia local time)

2022/06/30 14:20 EVRA 301420Z 11006KT 080V150 CAVOK 27/20 Q1017 NOSIG
2022/06/30 14:20 EVLA 301420Z AUTO 29003KT 240V340 CAVOK 22/18 Q1016
2022/06/30 14:20 EVVA 301420Z AUTO 31005KT CAVOK 23/21 Q1016
2022/06/30 14:20 EYKA 301420Z 12007KT 9999 BKN041 29/21 Q1016
2022/06/30 14:20 EYPA 301420Z 32003KT 260V010 CAVOK 23/19 Q1016
2022/06/30 14:20 EYSA 301420Z 10009KT 9999 FEW031 28/21 Q1017 NOSIG
2022/06/30 14:20 EYVI 301420Z 11007KT 080V150 9999 SCT040CB 27/20 Q1018 NOSIG
2022/06/30 14:20 EEKA 301420Z 04006KT 010V070 CAVOK 25/20 Q1018
2022/06/30 14:20 EEKE 301420Z 12011KT CAVOK 26/20 Q1017
2022/06/30 14:20 EEPU 301420Z AUTO 12004KT 080V150 9999 SCT230/// 28/18 Q1018
2022/06/30 14:20 EETN 301420Z 06011KT 9999 FEW040 26/14 Q1019 NOSIG
2022/06/30 14:20 EETU 301420Z 10006KT CAVOK 27/16 Q1019
   RIGA AIRPORT     EVRA               56 55N  023 58E   10   X     T          6 LV
   LIEPAJA INTL     EVLA        26406  56 31N  021 06E    4   X                8 LV
   VENTPILS         EVVA               57 21N  021 33E    6   X                8 LV
   KAUNAS           EYKA               54 54N  023 55E   77   X     T          6 LT
   PALANGA INTL     EYPA               55 55N  021 03E   10   X                6 LT
   SIAULIAI INTL    EYSA               55 54N  023 24E  135   X     T          6 LT
   VILNIUS INTL     EYVI        26730  54 38N  025 17E  197   X     T          6 LT
   KARDLA           EEKA        26116  58 59N  022 50E    4   X                8 EE
   KURESSAARE       EEKE               58 14N  022 31E    4   X                8 EE
   PARNU            EEPU               58 25N  024 28E   14   X                8 EE
   TALLINN          EETN        26038  59 24N  024 49E   40   X     T          8 EE
   TARTU            EETU               58 19N  026 41E   67   X                8 EE